sensor_id;sensor_type;location;lat;lon;timestamp;temperature;humidity
13446;DHT22;6795;51.232;3.764;2023-03-19T00:08:29;9.50;99.90
13446;DHT22;6795;51.232;3.764;2023-03-19T00:10:58;9.30;99.90
13446;DHT22;6795;51.232;3.764;2023-03-19T00:13:27;9.30;99.90
13446;DHT22;6795;51.232;3.764;2023-03-19T00:15:56;9.20;99.90
13446;DHT22;6795;51.232;3.764;2023-03-19T00:25:52;9.10;99.90
13446;DHT22;6795;51.232;3.764;2023-03-19T00:58:17;9.00;99.90
13446;DHT22;6795;51.232;3.764;2023-03-19T01:00:45;8.60;99.90
13446;DHT22;6795;51.232;3.764;2023-03-19T01:03:14;8.60;99.90
13446;DHT22;6795;51.232;3.764;2023-03-19T01:05:42;8.60;99.90
13446;DHT22;6795;51.232;3.764;2023-03-19T01:08:12;8.60;99.90
13446;DHT22;6795;51.232;3.764;2023-03-19T01:30:37;8.60;99.90
13446;DHT22;6795;51.232;3.764;2023-03-19T01:33:07;8.50;99.90
13446;DHT22;6795;51.232;3.764;2023-03-19T01:35:35;8.50;99.90
13446;DHT22;6795;51.232;3.764;2023-03-19T01:40:34;8.30;99.90
13446;DHT22;6795;51.232;3.764;2023-03-19T01:45:45;8.20;99.90
13446;DHT22;6795;51.232;3.764;2023-03-19T01:48:24;8.20;99.90
13446;DHT22;6795;51.232;3.764;2023-03-19T01:50:55;8.10;99.90
13446;DHT22;6795;51.232;3.764;2023-03-19T01:53:27;8.00;99.90
13446;DHT22;6795;51.232;3.764;2023-03-19T01:56:05;8.00;99.90
13446;DHT22;6795;51.232;3.764;2023-03-19T01:58:38;8.10;99.90
13446;DHT22;6795;51.232;3.764;2023-03-19T02:01:07;8.00;99.90
13446;DHT22;6795;51.232;3.764;2023-03-19T02:03:36;7.90;99.90
13446;DHT22;6795;51.232;3.764;2023-03-19T02:06:06;8.00;99.90
13446;DHT22;6795;51.232;3.764;2023-03-19T02:08:35;8.00;99.90
13446;DHT22;6795;51.232;3.764;2023-03-19T02:11:06;8.00;99.90
13446;DHT22;6795;51.232;3.764;2023-03-19T02:13:37;8.00;99.90
13446;DHT22;6795;51.232;3.764;2023-03-19T02:16:06;8.00;99.90
13446;DHT22;6795;51.232;3.764;2023-03-19T02:18:38;8.10;99.90
13446;DHT22;6795;51.232;3.764;2023-03-19T02:21:09;8.20;99.90
13446;DHT22;6795;51.232;3.764;2023-03-19T02:23:42;8.20;99.90
13446;DHT22;6795;51.232;3.764;2023-03-19T02:26:16;8.20;99.90
13446;DHT22;6795;51.232;3.764;2023-03-19T02:28:47;8.10;99.90
13446;DHT22;6795;51.232;3.764;2023-03-19T02:31:16;8.10;99.90
13446;DHT22;6795;51.232;3.764;2023-03-19T02:33:56;8.00;99.90
13446;DHT22;6795;51.232;3.764;2023-03-19T02:36:26;7.90;99.90
13446;DHT22;6795;51.232;3.764;2023-03-19T02:38:57;7.80;99.90
13446;DHT22;6795;51.232;3.764;2023-03-19T02:41:30;7.80;99.90
13446;DHT22;6795;51.232;3.764;2023-03-19T02:44:01;7.80;99.90
13446;DHT22;6795;51.232;3.764;2023-03-19T02:46:30;7.70;99.90
13446;DHT22;6795;51.232;3.764;2023-03-19T02:48:59;7.60;99.90
13446;DHT22;6795;51.232;3.764;2023-03-19T02:51:27;7.60;99.90
13446;DHT22;6795;51.232;3.764;2023-03-19T02:53:56;7.60;99.90
13446;DHT22;6795;51.232;3.764;2023-03-19T02:56:28;7.60;99.90
13446;DHT22;6795;51.232;3.764;2023-03-19T02:58:57;7.50;99.90
13446;DHT22;6795;51.232;3.764;2023-03-19T03:01:25;7.50;99.90
13446;DHT22;6795;51.232;3.764;2023-03-19T03:03:54;7.50;99.90
13446;DHT22;6795;51.232;3.764;2023-03-19T03:06:23;7.40;99.90
13446;DHT22;6795;51.232;3.764;2023-03-19T03:08:51;7.40;99.90
13446;DHT22;6795;51.232;3.764;2023-03-19T03:13:50;7.50;99.90
13446;DHT22;6795;51.232;3.764;2023-03-19T03:16:18;7.40;99.90
13446;DHT22;6795;51.232;3.764;2023-03-19T03:18:47;7.30;99.90
13446;DHT22;6795;51.232;3.764;2023-03-19T03:21:16;7.20;99.90
13446;DHT22;6795;51.232;3.764;2023-03-19T03:23:46;7.20;99.90
13446;DHT22;6795;51.232;3.764;2023-03-19T03:26:14;7.20;99.90
13446;DHT22;6795;51.232;3.764;2023-03-19T03:28:43;7.30;99.90
13446;DHT22;6795;51.232;3.764;2023-03-19T03:31:13;7.40;99.90
13446;DHT22;6795;51.232;3.764;2023-03-19T03:33:41;7.50;99.90
13446;DHT22;6795;51.232;3.764;2023-03-19T03:38:39;7.70;99.90
13446;DHT22;6795;51.232;3.764;2023-03-19T03:43:38;7.80;99.90
13446;DHT22;6795;51.232;3.764;2023-03-19T03:46:07;8.00;99.90
13446;DHT22;6795;51.232;3.764;2023-03-19T03:48:37;8.10;99.90
13446;DHT22;6795;51.232;3.764;2023-03-19T03:51:05;8.20;99.90
13446;DHT22;6795;51.232;3.764;2023-03-19T03:53:34;8.20;99.90
13446;DHT22;6795;51.232;3.764;2023-03-19T03:56:02;8.20;99.90
13446;DHT22;6795;51.232;3.764;2023-03-19T03:58:31;8.20;99.90
13446;DHT22;6795;51.232;3.764;2023-03-19T04:01:02;8.30;99.90
13446;DHT22;6795;51.232;3.764;2023-03-19T04:03:30;8.30;99.90
13446;DHT22;6795;51.232;3.764;2023-03-19T04:06:00;8.20;99.90
13446;DHT22;6795;51.232;3.764;2023-03-19T04:08:29;8.10;99.90
13446;DHT22;6795;51.232;3.764;2023-03-19T04:10:57;8.10;99.90
13446;DHT22;6795;51.232;3.764;2023-03-19T04:13:26;8.00;99.90
13446;DHT22;6795;51.232;3.764;2023-03-19T04:15:55;7.90;99.90
13446;DHT22;6795;51.232;3.764;2023-03-19T04:18:23;7.90;99.90
13446;DHT22;6795;51.232;3.764;2023-03-19T04:20:52;7.90;99.90
13446;DHT22;6795;51.232;3.764;2023-03-19T04:23:22;7.90;99.90
13446;DHT22;6795;51.232;3.764;2023-03-19T04:25:51;7.90;99.90
13446;DHT22;6795;51.232;3.764;2023-03-19T04:28:19;7.90;99.90
13446;DHT22;6795;51.232;3.764;2023-03-19T04:30:47;8.00;99.90
13446;DHT22;6795;51.232;3.764;2023-03-19T04:33:16;8.00;99.90
13446;DHT22;6795;51.232;3.764;2023-03-19T04:35:45;8.00;99.90
13446;DHT22;6795;51.232;3.764;2023-03-19T04:38:13;8.00;99.90
13446;DHT22;6795;51.232;3.764;2023-03-19T04:40:43;8.00;99.90
13446;DHT22;6795;51.232;3.764;2023-03-19T04:43:12;8.00;99.90
13446;DHT22;6795;51.232;3.764;2023-03-19T04:45:41;8.00;99.90
13446;DHT22;6795;51.232;3.764;2023-03-19T04:48:12;8.10;99.90
13446;DHT22;6795;51.232;3.764;2023-03-19T04:50:41;8.00;99.90
13446;DHT22;6795;51.232;3.764;2023-03-19T04:53:09;8.00;99.90
13446;DHT22;6795;51.232;3.764;2023-03-19T04:55:38;8.00;99.90
13446;DHT22;6795;51.232;3.764;2023-03-19T04:58:08;8.00;99.90
13446;DHT22;6795;51.232;3.764;2023-03-19T05:00:37;8.10;99.90
13446;DHT22;6795;51.232;3.764;2023-03-19T05:03:05;8.10;99.90
13446;DHT22;6795;51.232;3.764;2023-03-19T05:05:34;8.10;99.90
13446;DHT22;6795;51.232;3.764;2023-03-19T05:08:03;8.20;99.90
13446;DHT22;6795;51.232;3.764;2023-03-19T05:10:32;8.20;99.90
13446;DHT22;6795;51.232;3.764;2023-03-19T05:13:02;8.20;99.90
13446;DHT22;6795;51.232;3.764;2023-03-19T05:15:32;8.20;99.90
13446;DHT22;6795;51.232;3.764;2023-03-19T05:18:00;8.20;99.90
13446;DHT22;6795;51.232;3.764;2023-03-19T05:20:29;8.20;99.90
13446;DHT22;6795;51.232;3.764;2023-03-19T05:22:58;8.30;99.90
13446;DHT22;6795;51.232;3.764;2023-03-19T05:25:27;8.30;99.90
13446;DHT22;6795;51.232;3.764;2023-03-19T05:27:56;8.30;99.90
13446;DHT22;6795;51.232;3.764;2023-03-19T05:30:27;8.30;99.90
13446;DHT22;6795;51.232;3.764;2023-03-19T05:32:57;8.40;99.90
13446;DHT22;6795;51.232;3.764;2023-03-19T05:35:27;8.40;99.90
13446;DHT22;6795;51.232;3.764;2023-03-19T05:37:57;8.40;99.90
13446;DHT22;6795;51.232;3.764;2023-03-19T05:40:26;8.40;99.90
13446;DHT22;6795;51.232;3.764;2023-03-19T05:42:54;8.40;99.90
13446;DHT22;6795;51.232;3.764;2023-03-19T05:45:23;8.50;99.90
13446;DHT22;6795;51.232;3.764;2023-03-19T05:47:52;8.50;99.90
13446;DHT22;6795;51.232;3.764;2023-03-19T05:50:22;8.60;99.90
13446;DHT22;6795;51.232;3.764;2023-03-19T05:52:50;8.60;99.90
13446;DHT22;6795;51.232;3.764;2023-03-19T05:55:19;8.60;99.90
13446;DHT22;6795;51.232;3.764;2023-03-19T05:57:47;8.60;99.90
13446;DHT22;6795;51.232;3.764;2023-03-19T06:00:17;8.60;99.90
13446;DHT22;6795;51.232;3.764;2023-03-19T06:02:48;8.60;99.90
13446;DHT22;6795;51.232;3.764;2023-03-19T06:05:17;8.60;99.90
13446;DHT22;6795;51.232;3.764;2023-03-19T06:07:47;8.60;99.90
13446;DHT22;6795;51.232;3.764;2023-03-19T06:10:16;8.70;99.90
13446;DHT22;6795;51.232;3.764;2023-03-19T06:12:44;8.70;99.90
13446;DHT22;6795;51.232;3.764;2023-03-19T06:15:13;8.70;99.90
13446;DHT22;6795;51.232;3.764;2023-03-19T06:17:43;8.70;99.90
13446;DHT22;6795;51.232;3.764;2023-03-19T06:20:12;8.70;99.90
13446;DHT22;6795;51.232;3.764;2023-03-19T06:22:40;8.80;99.90
13446;DHT22;6795;51.232;3.764;2023-03-19T06:25:10;8.80;99.90
13446;DHT22;6795;51.232;3.764;2023-03-19T06:27:39;8.80;99.90
13446;DHT22;6795;51.232;3.764;2023-03-19T06:30:08;8.80;99.90
13446;DHT22;6795;51.232;3.764;2023-03-19T06:32:37;8.80;99.90
13446;DHT22;6795;51.232;3.764;2023-03-19T06:35:05;8.90;99.90
13446;DHT22;6795;51.232;3.764;2023-03-19T06:37:34;8.90;99.90
13446;DHT22;6795;51.232;3.764;2023-03-19T06:40:04;8.90;99.90
13446;DHT22;6795;51.232;3.764;2023-03-19T06:42:34;8.90;99.90
13446;DHT22;6795;51.232;3.764;2023-03-19T06:45:04;9.00;99.90
13446;DHT22;6795;51.232;3.764;2023-03-19T06:47:33;9.00;99.90
13446;DHT22;6795;51.232;3.764;2023-03-19T06:50:03;9.10;99.90
13446;DHT22;6795;51.232;3.764;2023-03-19T06:52:31;9.20;99.90
13446;DHT22;6795;51.232;3.764;2023-03-19T06:54:59;9.20;99.90
13446;DHT22;6795;51.232;3.764;2023-03-19T06:57:28;9.30;99.90
13446;DHT22;6795;51.232;3.764;2023-03-19T06:59:58;9.30;99.90
13446;DHT22;6795;51.232;3.764;2023-03-19T07:02:26;9.40;99.90
13446;DHT22;6795;51.232;3.764;2023-03-19T07:04:54;9.50;99.90
13446;DHT22;6795;51.232;3.764;2023-03-19T07:07:23;9.50;99.90
13446;DHT22;6795;51.232;3.764;2023-03-19T07:09:52;9.50;99.90
13446;DHT22;6795;51.232;3.764;2023-03-19T07:12:22;9.50;99.90
13446;DHT22;6795;51.232;3.764;2023-03-19T07:14:54;9.60;99.90
13446;DHT22;6795;51.232;3.764;2023-03-19T07:17:25;9.60;99.90
13446;DHT22;6795;51.232;3.764;2023-03-19T07:19:53;9.60;99.90
13446;DHT22;6795;51.232;3.764;2023-03-19T07:22:22;9.60;99.90
13446;DHT22;6795;51.232;3.764;2023-03-19T07:24:50;9.60;99.90
13446;DHT22;6795;51.232;3.764;2023-03-19T07:27:19;9.60;99.90
13446;DHT22;6795;51.232;3.764;2023-03-19T07:29:48;9.70;99.90
13446;DHT22;6795;51.232;3.764;2023-03-19T07:32:16;9.70;99.90
13446;DHT22;6795;51.232;3.764;2023-03-19T07:34:46;9.80;99.90
13446;DHT22;6795;51.232;3.764;2023-03-19T07:37:15;9.80;99.90
13446;DHT22;6795;51.232;3.764;2023-03-19T07:39:45;9.80;99.90
13446;DHT22;6795;51.232;3.764;2023-03-19T07:42:13;9.80;99.90
13446;DHT22;6795;51.232;3.764;2023-03-19T07:44:42;9.80;99.90
13446;DHT22;6795;51.232;3.764;2023-03-19T07:47:10;9.90;99.90
13446;DHT22;6795;51.232;3.764;2023-03-19T07:52:24;10.00;99.90
13446;DHT22;6795;51.232;3.764;2023-03-19T07:54:53;10.00;99.90
13446;DHT22;6795;51.232;3.764;2023-03-19T07:57:21;10.10;99.90
13446;DHT22;6795;51.232;3.764;2023-03-19T07:59:51;10.10;99.90
13446;DHT22;6795;51.232;3.764;2023-03-19T08:02:19;10.10;99.90
13446;DHT22;6795;51.232;3.764;2023-03-19T08:04:49;10.10;99.90
13446;DHT22;6795;51.232;3.764;2023-03-19T08:07:19;10.10;99.90
13446;DHT22;6795;51.232;3.764;2023-03-19T08:09:48;10.10;99.90
13446;DHT22;6795;51.232;3.764;2023-03-19T08:12:16;10.10;99.90
13446;DHT22;6795;51.232;3.764;2023-03-19T08:14:45;10.00;99.90
13446;DHT22;6795;51.232;3.764;2023-03-19T08:17:13;10.10;99.90
13446;DHT22;6795;51.232;3.764;2023-03-19T08:19:42;10.10;99.90
13446;DHT22;6795;51.232;3.764;2023-03-19T08:22:40;10.10;99.90
13446;DHT22;6795;51.232;3.764;2023-03-19T08:25:09;10.10;99.90
13446;DHT22;6795;51.232;3.764;2023-03-19T08:27:40;10.20;99.90
13446;DHT22;6795;51.232;3.764;2023-03-19T08:30:09;10.30;99.90
13446;DHT22;6795;51.232;3.764;2023-03-19T08:32:38;10.40;99.90
13446;DHT22;6795;51.232;3.764;2023-03-19T08:35:07;10.50;99.90
13446;DHT22;6795;51.232;3.764;2023-03-19T08:37:40;10.50;99.90
13446;DHT22;6795;51.232;3.764;2023-03-19T08:40:14;10.60;99.90
13446;DHT22;6795;51.232;3.764;2023-03-19T08:42:43;10.80;99.90
13446;DHT22;6795;51.232;3.764;2023-03-19T08:45:13;10.80;99.90
13446;DHT22;6795;51.232;3.764;2023-03-19T08:47:42;10.80;99.90
13446;DHT22;6795;51.232;3.764;2023-03-19T08:50:11;10.80;99.90
13446;DHT22;6795;51.232;3.764;2023-03-19T08:52:39;10.80;99.90
13446;DHT22;6795;51.232;3.764;2023-03-19T08:55:08;10.80;99.90
13446;DHT22;6795;51.232;3.764;2023-03-19T08:57:39;10.70;99.90
13446;DHT22;6795;51.232;3.764;2023-03-19T09:00:08;10.70;99.90
13446;DHT22;6795;51.232;3.764;2023-03-19T09:02:37;10.70;99.90
13446;DHT22;6795;51.232;3.764;2023-03-19T09:05:06;10.60;99.90
13446;DHT22;6795;51.232;3.764;2023-03-19T09:07:35;10.70;99.90
13446;DHT22;6795;51.232;3.764;2023-03-19T09:10:04;10.70;99.90
13446;DHT22;6795;51.232;3.764;2023-03-19T09:12:33;10.80;99.90
13446;DHT22;6795;51.232;3.764;2023-03-19T09:15:03;10.80;99.90
13446;DHT22;6795;51.232;3.764;2023-03-19T09:17:32;10.90;99.90
13446;DHT22;6795;51.232;3.764;2023-03-19T09:20:01;11.00;99.90
13446;DHT22;6795;51.232;3.764;2023-03-19T09:25:00;11.00;99.90
13446;DHT22;6795;51.232;3.764;2023-03-19T09:27:29;11.10;99.90
13446;DHT22;6795;51.232;3.764;2023-03-19T09:29:58;11.20;99.90
13446;DHT22;6795;51.232;3.764;2023-03-19T09:32:28;11.20;99.90
13446;DHT22;6795;51.232;3.764;2023-03-19T09:34:57;11.30;99.90
13446;DHT22;6795;51.232;3.764;2023-03-19T09:37:25;11.30;99.90
13446;DHT22;6795;51.232;3.764;2023-03-19T09:39:54;11.20;99.90
13446;DHT22;6795;51.232;3.764;2023-03-19T09:42:42;11.20;99.90
13446;DHT22;6795;51.232;3.764;2023-03-19T09:45:17;11.30;99.90
13446;DHT22;6795;51.232;3.764;2023-03-19T09:47:50;11.40;99.90
13446;DHT22;6795;51.232;3.764;2023-03-19T09:50:21;11.40;99.90
13446;DHT22;6795;51.232;3.764;2023-03-19T09:55:33;11.30;99.90
13446;DHT22;6795;51.232;3.764;2023-03-19T09:58:12;11.30;99.90
13446;DHT22;6795;51.232;3.764;2023-03-19T10:00:41;11.60;99.90
13446;DHT22;6795;51.232;3.764;2023-03-19T10:03:31;11.90;99.90
13446;DHT22;6795;51.232;3.764;2023-03-19T10:24:17;12.00;99.90
13446;DHT22;6795;51.232;3.764;2023-03-19T10:26:57;13.40;99.90
13446;DHT22;6795;51.232;3.764;2023-03-19T10:29:26;13.60;99.90
13446;DHT22;6795;51.232;3.764;2023-03-19T10:31:59;13.70;99.90
13446;DHT22;6795;51.232;3.764;2023-03-19T10:34:32;13.80;99.90
13446;DHT22;6795;51.232;3.764;2023-03-19T10:37:03;13.70;99.90
13446;DHT22;6795;51.232;3.764;2023-03-19T10:39:33;13.60;99.90
13446;DHT22;6795;51.232;3.764;2023-03-19T10:42:20;13.40;99.90
13446;DHT22;6795;51.232;3.764;2023-03-19T10:44:59;13.40;99.90
13446;DHT22;6795;51.232;3.764;2023-03-19T10:47:37;13.50;99.90
13446;DHT22;6795;51.232;3.764;2023-03-19T10:50:14;14.10;99.90
13446;DHT22;6795;51.232;3.764;2023-03-19T10:55:15;14.70;99.90
13446;DHT22;6795;51.232;3.764;2023-03-19T10:57:45;15.50;99.90
13446;DHT22;6795;51.232;3.764;2023-03-19T11:00:19;16.00;99.90
13446;DHT22;6795;51.232;3.764;2023-03-19T11:02:52;15.80;99.90
13446;DHT22;6795;51.232;3.764;2023-03-19T11:05:25;14.70;99.90
13446;DHT22;6795;51.232;3.764;2023-03-19T11:07:58;14.40;99.90
13446;DHT22;6795;51.232;3.764;2023-03-19T11:10:29;13.90;99.90
13446;DHT22;6795;51.232;3.764;2023-03-19T11:12:59;13.80;99.90
13446;DHT22;6795;51.232;3.764;2023-03-19T11:15:33;14.10;99.90
13446;DHT22;6795;51.232;3.764;2023-03-19T11:18:14;14.00;99.90
13446;DHT22;6795;51.232;3.764;2023-03-19T11:20:48;13.70;99.90
13446;DHT22;6795;51.232;3.764;2023-03-19T11:23:18;13.30;99.90
13446;DHT22;6795;51.232;3.764;2023-03-19T11:25:49;13.00;99.90
13446;DHT22;6795;51.232;3.764;2023-03-19T11:28:19;13.00;99.90
13446;DHT22;6795;51.232;3.764;2023-03-19T11:30:56;12.90;99.90
13446;DHT22;6795;51.232;3.764;2023-03-19T11:33:40;12.80;99.90
13446;DHT22;6795;51.232;3.764;2023-03-19T11:36:16;12.70;99.90
13446;DHT22;6795;51.232;3.764;2023-03-19T11:41:35;12.70;99.90
13446;DHT22;6795;51.232;3.764;2023-03-19T11:44:07;12.20;99.90
13446;DHT22;6795;51.232;3.764;2023-03-19T11:46:43;11.90;99.90
13446;DHT22;6795;51.232;3.764;2023-03-19T11:53:01;11.80;99.90
13446;DHT22;6795;51.232;3.764;2023-03-19T11:55:39;11.70;99.90
13446;DHT22;6795;51.232;3.764;2023-03-19T11:58:25;12.00;99.90
13446;DHT22;6795;51.232;3.764;2023-03-19T12:01:00;12.10;99.90
13446;DHT22;6795;51.232;3.764;2023-03-19T12:06:42;12.10;99.90
13446;DHT22;6795;51.232;3.764;2023-03-19T12:09:22;12.00;99.90
13446;DHT22;6795;51.232;3.764;2023-03-19T12:11:59;11.80;99.90
13446;DHT22;6795;51.232;3.764;2023-03-19T12:14:41;11.80;99.90
13446;DHT22;6795;51.232;3.764;2023-03-19T12:17:22;11.90;99.90
13446;DHT22;6795;51.232;3.764;2023-03-19T12:20:24;12.10;99.90
13446;DHT22;6795;51.232;3.764;2023-03-19T12:23:05;12.20;99.90
13446;DHT22;6795;51.232;3.764;2023-03-19T12:25:51;12.20;99.90
13446;DHT22;6795;51.232;3.764;2023-03-19T12:28:24;12.20;99.90
13446;DHT22;6795;51.232;3.764;2023-03-19T12:31:11;12.50;99.90
13446;DHT22;6795;51.232;3.764;2023-03-19T12:33:48;12.60;99.90
13446;DHT22;6795;51.232;3.764;2023-03-19T12:36:19;12.80;99.90
13446;DHT22;6795;51.232;3.764;2023-03-19T12:38:52;13.10;99.90
13446;DHT22;6795;51.232;3.764;2023-03-19T12:41:24;13.10;99.90
13446;DHT22;6795;51.232;3.764;2023-03-19T12:43:57;13.10;99.90
13446;DHT22;6795;51.232;3.764;2023-03-19T12:46:31;13.10;99.90
13446;DHT22;6795;51.232;3.764;2023-03-19T12:49:06;13.00;99.90
13446;DHT22;6795;51.232;3.764;2023-03-19T12:51:38;12.70;99.90
13446;DHT22;6795;51.232;3.764;2023-03-19T12:54:11;12.70;99.90
13446;DHT22;6795;51.232;3.764;2023-03-19T12:56:49;12.40;99.90
13446;DHT22;6795;51.232;3.764;2023-03-19T12:59:27;12.10;99.90
13446;DHT22;6795;51.232;3.764;2023-03-19T13:02:00;11.80;99.90
13446;DHT22;6795;51.232;3.764;2023-03-19T13:04:37;11.70;99.90
13446;DHT22;6795;51.232;3.764;2023-03-19T13:07:10;11.60;99.90
13446;DHT22;6795;51.232;3.764;2023-03-19T13:14:51;11.60;99.90
13446;DHT22;6795;51.232;3.764;2023-03-19T13:17:26;11.50;99.90
13446;DHT22;6795;51.232;3.764;2023-03-19T13:19:57;11.50;99.90
13446;DHT22;6795;51.232;3.764;2023-03-19T13:27:34;11.40;99.90
13446;DHT22;6795;51.232;3.764;2023-03-19T13:30:16;11.40;99.90
13446;DHT22;6795;51.232;3.764;2023-03-19T13:35:31;11.20;99.90
13446;DHT22;6795;51.232;3.764;2023-03-19T13:38:04;11.00;99.90
13446;DHT22;6795;51.232;3.764;2023-03-19T13:40:40;10.90;99.90
13446;DHT22;6795;51.232;3.764;2023-03-19T13:43:41;11.00;99.90
13446;DHT22;6795;51.232;3.764;2023-03-19T13:46:45;11.10;99.90
13446;DHT22;6795;51.232;3.764;2023-03-19T13:49:26;11.00;99.90
13446;DHT22;6795;51.232;3.764;2023-03-19T13:51:59;11.30;99.90
13446;DHT22;6795;51.232;3.764;2023-03-19T13:54:35;11.20;99.90
13446;DHT22;6795;51.232;3.764;2023-03-19T13:57:18;11.00;99.90
13446;DHT22;6795;51.232;3.764;2023-03-19T13:59:49;10.90;99.90
13446;DHT22;6795;51.232;3.764;2023-03-19T14:02:44;10.90;99.90
13446;DHT22;6795;51.232;3.764;2023-03-19T14:05:19;10.70;99.90
13446;DHT22;6795;51.232;3.764;2023-03-19T14:07:53;10.60;99.90
13446;DHT22;6795;51.232;3.764;2023-03-19T14:10:25;10.50;99.90
13446;DHT22;6795;51.232;3.764;2023-03-19T14:13:02;10.40;99.90
13446;DHT22;6795;51.232;3.764;2023-03-19T14:15:34;10.10;99.90
13446;DHT22;6795;51.232;3.764;2023-03-19T14:18:14;10.20;99.90
13446;DHT22;6795;51.232;3.764;2023-03-19T14:20:50;10.40;99.90
13446;DHT22;6795;51.232;3.764;2023-03-19T14:23:26;10.40;99.90
13446;DHT22;6795;51.232;3.764;2023-03-19T14:26:16;10.50;99.90
13446;DHT22;6795;51.232;3.764;2023-03-19T14:28:51;10.60;99.90
13446;DHT22;6795;51.232;3.764;2023-03-19T14:31:28;10.70;99.90
13446;DHT22;6795;51.232;3.764;2023-03-19T14:34:01;10.80;99.90
13446;DHT22;6795;51.232;3.764;2023-03-19T14:36:35;10.80;99.90
13446;DHT22;6795;51.232;3.764;2023-03-19T14:39:11;10.90;99.90
13446;DHT22;6795;51.232;3.764;2023-03-19T14:41:50;11.00;99.90
13446;DHT22;6795;51.232;3.764;2023-03-19T14:44:44;11.00;99.90
13446;DHT22;6795;51.232;3.764;2023-03-19T14:47:24;10.90;99.90
13446;DHT22;6795;51.232;3.764;2023-03-19T14:50:17;10.80;99.90
13446;DHT22;6795;51.232;3.764;2023-03-19T14:52:58;10.70;99.90
13446;DHT22;6795;51.232;3.764;2023-03-19T14:55:33;10.80;99.90
13446;DHT22;6795;51.232;3.764;2023-03-19T14:58:03;10.60;99.90
13446;DHT22;6795;51.232;3.764;2023-03-19T15:00:46;10.70;99.90
13446;DHT22;6795;51.232;3.764;2023-03-19T15:03:21;10.80;99.90
13446;DHT22;6795;51.232;3.764;2023-03-19T15:05:56;10.90;99.90
13446;DHT22;6795;51.232;3.764;2023-03-19T15:08:26;10.90;99.90
13446;DHT22;6795;51.232;3.764;2023-03-19T15:11:08;11.20;99.90
13446;DHT22;6795;51.232;3.764;2023-03-19T15:13:49;11.20;99.90
13446;DHT22;6795;51.232;3.764;2023-03-19T15:16:30;11.30;99.90
13446;DHT22;6795;51.232;3.764;2023-03-19T15:19:08;11.20;99.90
13446;DHT22;6795;51.232;3.764;2023-03-19T15:21:37;11.30;99.90
13446;DHT22;6795;51.232;3.764;2023-03-19T15:24:12;11.20;99.90
13446;DHT22;6795;51.232;3.764;2023-03-19T15:26:43;11.20;99.90
13446;DHT22;6795;51.232;3.764;2023-03-19T15:29:11;11.20;99.90
13446;DHT22;6795;51.232;3.764;2023-03-19T15:31:42;11.20;99.90
13446;DHT22;6795;51.232;3.764;2023-03-19T15:34:29;11.20;99.90
13446;DHT22;6795;51.232;3.764;2023-03-19T15:37:01;11.00;99.90
13446;DHT22;6795;51.232;3.764;2023-03-19T15:39:34;10.90;99.90
13446;DHT22;6795;51.232;3.764;2023-03-19T15:42:04;10.80;99.90
13446;DHT22;6795;51.232;3.764;2023-03-19T15:44:35;10.80;99.90
13446;DHT22;6795;51.232;3.764;2023-03-19T15:47:09;10.60;99.90
13446;DHT22;6795;51.232;3.764;2023-03-19T15:49:42;10.50;99.90
13446;DHT22;6795;51.232;3.764;2023-03-19T15:52:15;10.50;99.90
13446;DHT22;6795;51.232;3.764;2023-03-19T15:54:45;10.50;99.90
13446;DHT22;6795;51.232;3.764;2023-03-19T15:57:15;10.40;99.90
13446;DHT22;6795;51.232;3.764;2023-03-19T15:59:45;10.40;99.90
13446;DHT22;6795;51.232;3.764;2023-03-19T16:02:17;10.30;99.90
13446;DHT22;6795;51.232;3.764;2023-03-19T16:04:53;10.30;99.90
13446;DHT22;6795;51.232;3.764;2023-03-19T16:08:02;10.20;99.90
13446;DHT22;6795;51.232;3.764;2023-03-19T16:10:37;10.10;99.90
13446;DHT22;6795;51.232;3.764;2023-03-19T16:13:39;10.00;99.90
13446;DHT22;6795;51.232;3.764;2023-03-19T16:16:18;9.90;99.90
13446;DHT22;6795;51.232;3.764;2023-03-19T16:18:49;9.80;99.90
13446;DHT22;6795;51.232;3.764;2023-03-19T16:21:22;9.80;99.90
13446;DHT22;6795;51.232;3.764;2023-03-19T16:23:54;9.80;99.90
13446;DHT22;6795;51.232;3.764;2023-03-19T16:26:24;9.70;99.90
13446;DHT22;6795;51.232;3.764;2023-03-19T16:29:02;9.80;99.90
13446;DHT22;6795;51.232;3.764;2023-03-19T16:31:41;9.80;99.90
13446;DHT22;6795;51.232;3.764;2023-03-19T16:34:39;9.80;99.90
13446;DHT22;6795;51.232;3.764;2023-03-19T16:37:31;9.80;99.90
13446;DHT22;6795;51.232;3.764;2023-03-19T16:40:14;9.70;99.90
13446;DHT22;6795;51.232;3.764;2023-03-19T16:42:53;9.60;99.90
13446;DHT22;6795;51.232;3.764;2023-03-19T16:45:26;9.50;99.90
13446;DHT22;6795;51.232;3.764;2023-03-19T16:47:55;9.50;99.90
13446;DHT22;6795;51.232;3.764;2023-03-19T16:50:28;9.40;99.90
13446;DHT22;6795;51.232;3.764;2023-03-19T16:52:59;9.30;99.90
13446;DHT22;6795;51.232;3.764;2023-03-19T16:55:31;9.30;99.90
13446;DHT22;6795;51.232;3.764;2023-03-19T16:58:05;9.30;99.90
13446;DHT22;6795;51.232;3.764;2023-03-19T17:00:34;9.20;99.90
13446;DHT22;6795;51.232;3.764;2023-03-19T17:03:02;9.20;99.90
13446;DHT22;6795;51.232;3.764;2023-03-19T17:05:32;9.20;99.90
13446;DHT22;6795;51.232;3.764;2023-03-19T17:08:03;9.30;99.90
13446;DHT22;6795;51.232;3.764;2023-03-19T17:10:31;9.30;99.90
13446;DHT22;6795;51.232;3.764;2023-03-19T17:13:00;9.30;99.90
13446;DHT22;6795;51.232;3.764;2023-03-19T17:15:32;9.30;99.90
13446;DHT22;6795;51.232;3.764;2023-03-19T17:18:09;9.20;99.90
13446;DHT22;6795;51.232;3.764;2023-03-19T17:20:47;9.10;99.90
13446;DHT22;6795;51.232;3.764;2023-03-19T17:23:19;9.10;99.90
13446;DHT22;6795;51.232;3.764;2023-03-19T17:25:50;9.10;99.90
13446;DHT22;6795;51.232;3.764;2023-03-19T17:28:19;9.10;99.90
13446;DHT22;6795;51.232;3.764;2023-03-19T17:30:52;9.00;99.90
13446;DHT22;6795;51.232;3.764;2023-03-19T17:35:52;9.00;99.90
13446;DHT22;6795;51.232;3.764;2023-03-19T17:38:26;9.00;99.90
13446;DHT22;6795;51.232;3.764;2023-03-19T17:45:54;9.00;99.90
13446;DHT22;6795;51.232;3.764;2023-03-19T18:08:20;8.90;99.90
13446;DHT22;6795;51.232;3.764;2023-03-19T18:10:51;8.80;99.90
13446;DHT22;6795;51.232;3.764;2023-03-19T18:13:19;8.70;99.90
13446;DHT22;6795;51.232;3.764;2023-03-19T18:15:48;8.80;99.90
13446;DHT22;6795;51.232;3.764;2023-03-19T18:18:19;8.70;99.90
13446;DHT22;6795;51.232;3.764;2023-03-19T18:20:51;8.70;99.90
13446;DHT22;6795;51.232;3.764;2023-03-19T18:23:19;8.40;99.90
13446;DHT22;6795;51.232;3.764;2023-03-19T18:25:51;8.10;99.90
13446;DHT22;6795;51.232;3.764;2023-03-19T18:28:19;7.80;99.90
13446;DHT22;6795;51.232;3.764;2023-03-19T18:30:48;7.50;99.90
13446;DHT22;6795;51.232;3.764;2023-03-19T18:33:21;7.30;99.90
13446;DHT22;6795;51.232;3.764;2023-03-19T18:35:52;7.00;99.90
13446;DHT22;6795;51.232;3.764;2023-03-19T18:38:23;6.90;99.90
13446;DHT22;6795;51.232;3.764;2023-03-19T18:40:53;6.80;99.90
13446;DHT22;6795;51.232;3.764;2023-03-19T18:43:22;6.60;99.90
13446;DHT22;6795;51.232;3.764;2023-03-19T18:45:51;6.40;99.90
13446;DHT22;6795;51.232;3.764;2023-03-19T18:48:23;6.20;99.90
13446;DHT22;6795;51.232;3.764;2023-03-19T18:50:53;6.10;99.90
13446;DHT22;6795;51.232;3.764;2023-03-19T18:53:22;5.80;99.90
13446;DHT22;6795;51.232;3.764;2023-03-19T18:55:53;5.70;99.90
13446;DHT22;6795;51.232;3.764;2023-03-19T18:58:23;5.60;99.90
13446;DHT22;6795;51.232;3.764;2023-03-19T19:00:54;5.50;99.90
13446;DHT22;6795;51.232;3.764;2023-03-19T19:03:23;5.50;99.90